Flight Track Log - Related Links

Times and Time Zones

All times are in EDT time to prevent confusion due to time zone crossing. See the JBU33 flight status page for this flight to view local times or setup timezone preferences in your user account.

Time Position Orientation Groundspeed Altitude Reporting Facility
EDT Latitude Longitude Course Direction KTS MPH feet Rate Location/Type
01:17PM 44.5058 -73.3133 194° South 274 315 6,400  Level Boston Center
01:18PM 43.6533 -73.4555 196° South  Level FlightAware Approximate
01:18PM 44.4369 -73.3297 190° South 290 334 9,700  Level Boston Center
01:19PM 43.5992 -73.4770 196° South  Level FlightAware Approximate
01:19PM 44.3514 -73.3547 192° South 306 352 11,500  Level Boston Center
01:20PM 43.5446 -73.4963 194° South  Level FlightAware Approximate
01:20PM 44.2533 -73.3850 192° South 344 396 14,400  Level Boston Center
01:21PM 43.4899 -73.5145 194° South  Level FlightAware Approximate
01:21PM 44.1531 -73.4122 191° South 365 420 17,100  Level Boston Center
01:22PM 43.4351 -73.5327 194° South  Level FlightAware Approximate
01:22PM 44.0486 -73.4453 193° South 375 432 19,100  Level Boston Center
01:23PM 43.3804 -73.5510 194° South  Level FlightAware Approximate
01:23PM 43.9317 -73.4778 191° South 387 445 21,800  Level Boston Center
01:24PM 43.8231 -73.5106 192° South 394 453 23,900 1,918 Climbing Boston Center
01:25PM 43.7100 -73.5403 191° South 400 460 25,700 1,785 Climbing Boston Center
01:26PM 43.5953 -73.5694 190° South 410 472 27,500 1,169 Climbing Boston Center
01:27PM 43.4803 -73.6047 193° South 422 486 28,000 -203 Climbing Boston Center
01:28PM 43.3653 -73.6339 190° South 427 491 27,100 -1,000 Descending Boston Center
01:29PM 43.2503 -73.6658 191° South 427 491 26,000 -365 Descending Boston Center
01:31PM 43.1722 -73.6694 200° South  Level Estimated
01:31PM 43.0225 -73.7322 200° South 427 491 26,000  Level Boston Center
01:32PM 42.9097 -73.7611 191° South 427 491 26,000  Level Boston Center
01:33PM 42.8092 -73.7872 191° South 405 466 26,000  Level Boston Center
01:34PM 42.7047 -73.8047 187° South 389 448 26,000  Level Boston Center
01:35PM 42.6172 -73.8083 182° South 389 448 26,000  Level Boston Center
01:36PM 42.5067 -73.8144 182° South 384 442 26,000  Level Boston Center
01:37PM 42.3961 -73.8175 181° South 391 450 26,000  Level Boston Center
01:38PM 42.2753 -73.8178 180° South 414 476 26,000  Level Boston Center
01:39PM 42.1628 -73.8208 181° South 419 482 26,000  Level Boston Center
01:40PM 42.0481 -73.8211 180° South 419 482 26,000 -250 Level Boston Center
01:41PM 41.9208 -73.8239 181° South 419 482 25,500 -1,080 Descending Boston Center
01:43PM 41.7611 -73.8328 182° South 403 464 23,300 -1,510 Descending New York Center
01:44PM 41.6658 -73.8922 205° Southwest 379 436 21,700 -1,650 Descending New York Center
01:45PM 41.5664 -73.9569 206° Southwest 369 425 20,000 -850 Descending New York Center
01:46PM 41.4753 -74.0133 205° Southwest 362 417 20,000  Level New York Center
01:47PM 41.3844 -74.0644 203° Southwest 362 417 20,000  Level New York Center
01:48PM 41.2797 -74.0814 187° South 368 423 20,000 -400 Level New York Center
01:49PM 41.1792 -74.0983 187° South 373 429 19,200 -480 Descending New York Center
01:50PM 41.0667 -74.1167 187° South 350 403 19,000 -96 Descending New York TRACON
01:51PM 40.9833 -74.1333 189° South 329 379 19,000 -600 Level New York TRACON
01:52PM 40.9000 -74.0833 156° South 347 399 17,800 -1,450 Descending New York TRACON
01:53PM 40.8500 -73.9667 120° Southeast 338 389 16,100 -1,650 Descending New York TRACON
01:54PM 40.8167 -73.8667 114° Southeast 327 376 14,500 -1,550 Descending New York TRACON
01:55PM 40.7833 -73.7500 111° Southeast 327 376 13,000 -750 Descending New York TRACON
01:56PM 40.7333 -73.6500 123° Southeast 335 386 13,000  Level New York TRACON
01:57PM 40.7000 -73.5500 114° Southeast 326 375 13,000 -600 Level New York TRACON
01:58PM 40.6167 -73.5500 180° South 307 353 11,800 -1,461 Descending New York TRACON
01:59PM 40.5500 -73.5500 180° South 296 341 10,200 -1,878 Descending New York TRACON
02:00PM 40.4667 -73.5833 197° South 283 326 8,200 -2,050 Descending New York TRACON
02:01PM 40.4000 -73.6333 210° Southwest 277 319 6,100 -2,064 Descending New York TRACON
02:02PM 40.3667 -73.7333 246° West 279 321 3,900 -1,488 Descending New York TRACON
02:03PM 40.3667 -73.8333 270° West 269 310 3,000 -450 Descending New York TRACON
02:04PM 40.3667 -73.9167 270° West 249 287 3,000  Level New York TRACON
02:05PM 40.4167 -73.9833 315° West 230 265 3,000  Level New York TRACON
02:06PM 40.4667 -73.9833 360° North 198 228 3,000  Level New York TRACON
02:07PM 40.5167 -73.9667 14° North 188 216 3,000 -313 Level New York TRACON
02:08PM 40.5667 -73.9333 27° Northeast 181 208 2,400 -750 Descending New York TRACON
02:09PM 40.6000 -73.9000 37° Northeast 159 183 1,500 -524 Descending New York TRACON
02:10PM 40.6333 -73.8667 37° Northeast 143 165 1,300 -417 Descending New York TRACON
02:11PM 40.6667 -73.8333 37° Northeast 145 167 700 -667 Descending New York TRACON

Login

Don't have an account? Register now (free) for customized features, flight alerts, and more!